Time;durP1;ratioP1;P1;durP2;ratioP2;P2;SDS_P1;SDS_P2;PMS_P1;PMS_P2;Temp;Humidity;BMP_temperature;BMP_pressure;BME280_temperature;BME280_humidity;BME280_pressure;Samples;Min_cycle;Max_cycle;Signal;HPM_P1;HPM_P2
2023/08/10 18:51:26;;;;;;;9.77;5.00;;;;;;;;;;5110753;27;20967;-84
2023/08/10 18:53:58;;;;;;;13.07;4.60;;;;;;;;;;5110394;28;20375;-84
2023/08/10 18:56:31;;;;;;;12.55;4.93;;;;;;;;;;5109419;28;20044;-84
2023/08/10 18:59:07;;;;;;;7.07;4.55;;;;;;;;;;5109869;28;20485;-85
2023/08/10 19:01:39;;;;;;;8.70;4.50;;;;;;;;;;5109710;28;20047;-84
2023/08/10 19:04:10;;;;;;;12.45;4.60;;;;;;;;;;5109146;28;20055;-84
2023/08/10 19:06:40;;;;;;;8.52;4.18;;;;;;;;;;5109999;28;20044;-83
2023/08/10 19:09:15;;;;;;;8.95;4.38;;;;;;;;;;5108851;28;20087;-83
2023/08/10 19:11:46;;;;;;;7.53;4.22;;;;;;;;;;5109860;28;20062;-85
2023/08/10 19:14:17;;;;;;;9.93;4.20;;;;;;;;;;5110547;28;20052;-84
2023/08/10 19:16:47;;;;;;;9.48;3.95;;;;;;;;;;5108636;28;20052;-83
2023/08/10 19:19:17;;;;;;;11.07;4.85;;;;;;;;;;5109856;28;20044;-85
2023/08/10 19:21:51;;;;;;;8.95;3.75;;;;;;;;;;5109014;28;20047;-82
2023/08/10 19:24:24;;;;;;;8.65;3.53;;;;;;;;;;5109612;28;20059;-83
2023/08/10 19:26:56;;;;;;;11.43;3.47;;;;;;;;;;5109377;28;20056;-83
2023/08/10 19:29:27;;;;;;;9.27;3.75;;;;;;;;;;5108735;28;20066;-83
2023/08/10 19:32:01;;;;;;;7.78;3.47;;;;;;;;;;5109931;28;20485;-83
2023/08/10 19:34:32;;;;;;;7.55;3.63;;;;;;;;;;5108693;28;20401;-83
2023/08/10 19:37:03;;;;;;;9.15;3.83;;;;;;;;;;5110009;28;20047;-83
2023/08/10 19:39:35;;;;;;;7.07;3.67;;;;;;;;;;5108168;28;20044;-83
2023/08/10 19:42:07;;;;;;;11.52;3.97;;;;;;;;;;5107471;28;20055;-84
2023/08/10 19:44:40;;;;;;;;;;;;;;;;;;5110038;28;20055;-84
2023/08/10 19:47:10;;;;;;;10.13;3.50;;;;;;;;;;5108469;28;19920;-84
2023/08/10 19:49:40;;;;;;;7.90;4.03;;;;;;;;;;5065540;28;20061;-82
2023/08/10 19:52:16;;;;;;;10.00;3.72;;;;;;;;;;5013340;28;20050;-85
2023/08/10 19:54:50;;;;;;;12.10;5.60;;;;;;;;;;5011462;28;20061;-85
2023/08/10 19:57:21;;;;;;;13.95;4.43;;;;;;;;;;5012972;28;20046;-83
2023/08/10 19:59:51;;;;;;;8.65;4.07;;;;;;;;;;5012807;28;20483;-85
2023/08/10 20:02:23;;;;;;;10.45;3.63;;;;;;;;;;5011846;28;20049;-85
2023/08/10 20:04:55;;;;;;;9.68;4.22;;;;;;;;;;5013332;28;20391;-85
2023/08/10 20:07:29;;;;;;;8.02;4.03;;;;;;;;;;5011214;28;20433;-85
2023/08/10 20:10:00;;;;;;;10.73;3.95;;;;;;;;;;5012715;28;20403;-85
2023/08/10 20:12:33;;;;;;;;;;;;;;;;;;5010683;28;20496;-85
2023/08/10 20:15:07;;;;;;;11.75;3.92;;;;;;;;;;4997092;28;19941;-85
2023/08/10 20:17:38;;;;;;;17.27;4.38;;;;;;;;;;5011533;28;20042;-85
2023/08/10 20:20:12;;;;;;;15.85;4.70;;;;;;;;;;5011844;28;20053;-85
2023/08/10 20:22:44;;;;;;;13.27;4.20;;;;;;;;;;5013648;28;20411;-83
2023/08/10 20:25:22;;;;;;;13.75;4.50;;;;;;;;;;5011728;28;20499;-85
2023/08/10 20:28:01;;;;;;;9.68;4.13;;;;;;;;;;4995211;28;20380;-86
2023/08/10 20:30:34;;;;;;;8.15;4.40;;;;;;;;;;4994489;28;20141;-85
2023/08/10 20:33:13;;;;;;;13.63;4.47;;;;;;;;;;5012343;28;20053;-84
2023/08/10 20:35:46;;;;;;;11.07;4.97;;;;;;;;;;5012540;28;20042;-85
2023/08/10 20:38:18;;;;;;;13.75;3.85;;;;;;;;;;4994702;28;20081;-84
2023/08/10 20:40:50;;;;;;;12.23;4.43;;;;;;;;;;5012293;28;20046;-84
2023/08/10 20:43:21;;;;;;;9.93;4.32;;;;;;;;;;5011705;28;20060;-85
2023/08/10 20:45:53;;;;;;;8.50;3.85;;;;;;;;;;5012147;28;20046;-84
2023/08/10 20:48:24;;;;;;;7.95;3.92;;;;;;;;;;5012618;28;20054;-84
2023/08/10 20:50:54;;;;;;;8.63;4.43;;;;;;;;;;5011561;28;20050;-86
2023/08/10 20:53:26;;;;;;;9.20;5.00;;;;;;;;;;4995084;28;20077;-85
2023/08/10 20:56:00;;;;;;;8.32;4.35;;;;;;;;;;5010769;28;20496;-85
2023/08/10 20:58:31;;;;;;;10.70;5.22;;;;;;;;;;5009357;28;20495;-85
2023/08/10 21:01:05;;;;;;;11.05;4.65;;;;;;;;;;5010435;28;20053;-87
2023/08/10 21:03:41;;;;;;;9.52;4.72;;;;;;;;;;4993223;28;20518;-86
2023/08/10 21:06:13;;;;;;;12.25;5.35;;;;;;;;;;5009622;28;20052;-85
2023/08/10 21:08:46;;;;;;;11.20;5.13;;;;;;;;;;4993695;28;20049;-86
2023/08/10 21:11:15;;;;;;;19.42;5.78;;;;;;;;;;5011397;28;20284;-85
2023/08/10 21:13:51;;;;;;;9.88;5.22;;;;;;;;;;5011789;28;20054;-86
2023/08/10 21:16:23;;;;;;;11.30;5.10;;;;;;;;;;5009892;28;20050;-84
2023/08/10 21:18:56;;;;;;;12.43;5.25;;;;;;;;;;5011835;28;20373;-86
2023/08/10 21:21:26;;;;;;;11.70;5.45;;;;;;;;;;5010716;28;20056;-85
2023/08/10 21:23:57;;;;;;;11.32;5.45;;;;;;;;;;5010271;28;20049;-86
2023/08/10 21:26:28;;;;;;;12.13;6.20;;;;;;;;;;5011287;28;20065;-86
2023/08/10 21:28:59;;;;;;;10.75;4.65;;;;;;;;;;5009859;28;20146;-85
2023/08/10 21:31:30;;;;;;;19.92;5.22;;;;;;;;;;4993158;28;20050;-83
2023/08/10 21:34:01;;;;;;;14.32;5.70;;;;;;;;;;5009969;28;20046;-83
2023/08/10 21:36:34;;;;;;;10.88;5.20;;;;;;;;;;5010011;28;20064;-84
2023/08/10 21:39:09;;;;;;;11.13;4.70;;;;;;;;;;5009744;28;20054;-84
2023/08/10 21:41:40;;;;;;;11.70;5.05;;;;;;;;;;5011159;28;20072;-83
2023/08/10 21:44:13;;;;;;;10.95;4.95;;;;;;;;;;5010795;28;20042;-83
2023/08/10 21:46:49;;;;;;;16.50;5.55;;;;;;;;;;5010588;28;20046;-83
2023/08/10 21:49:19;;;;;;;11.80;5.20;;;;;;;;;;5010753;28;20380;-84
2023/08/10 21:51:49;;;;;;;16.42;6.70;;;;;;;;;;5008875;28;20079;-83
2023/08/10 21:54:24;;;;;;;17.83;8.95;;;;;;;;;;5010733;28;20053;-83
2023/08/10 21:56:56;;;;;;;19.30;8.75;;;;;;;;;;5012309;28;20049;-83
2023/08/10 21:59:32;;;;;;;18.10;8.30;;;;;;;;;;5010574;28;20042;-84
2023/08/10 22:02:02;;;;;;;20.35;9.00;;;;;;;;;;5010452;28;20072;-85
2023/08/10 22:04:35;;;;;;;13.00;7.45;;;;;;;;;;5010916;28;20046;-85
2023/08/10 22:07:06;;;;;;;16.33;6.90;;;;;;;;;;5009343;28;20046;-85
2023/08/10 22:09:38;;;;;;;13.18;7.10;;;;;;;;;;5007911;28;20049;-86
2023/08/10 22:12:10;;;;;;;14.82;6.63;;;;;;;;;;5007552;28;20053;-85
2023/08/10 22:14:46;;;;;;;12.57;6.97;;;;;;;;;;5006172;28;20550;-85
2023/08/10 22:17:19;;;;;;;14.27;6.03;;;;;;;;;;5008272;28;20056;-83
2023/08/10 22:19:50;;;;;;;13.38;6.38;;;;;;;;;;5008499;28;20114;-82
2023/08/10 22:22:21;;;;;;;14.82;7.97;;;;;;;;;;5007834;28;20484;-83
2023/08/10 22:24:54;;;;;;;18.17;9.43;;;;;;;;;;5008422;28;20053;-84
2023/08/10 22:27:25;;;;;;;17.30;10.05;;;;;;;;;;5007328;28;20569;-86
2023/08/10 22:30:00;;;;;;;18.08;8.18;;;;;;;;;;5008723;28;20057;-85
2023/08/10 22:32:32;;;;;;;19.48;7.63;;;;;;;;;;5008374;28;20050;-85
2023/08/10 22:35:04;;;;;;;14.18;7.50;;;;;;;;;;5007545;28;20042;-85
2023/08/10 22:37:37;;;;;;;14.43;7.38;;;;;;;;;;5007936;28;20054;-83
2023/08/10 22:40:08;;;;;;;14.95;7.95;;;;;;;;;;5008357;28;20456;-84
2023/08/10 22:42:39;;;;;;;15.32;7.25;;;;;;;;;;5008593;28;20403;-84
2023/08/10 22:45:14;;;;;;;14.80;6.80;;;;;;;;;;5010386;28;20045;-85
2023/08/10 22:47:49;;;;;;;14.73;6.75;;;;;;;;;;5009636;28;20046;-86
2023/08/10 22:50:21;;;;;;;17.08;6.60;;;;;;;;;;5009963;28;20061;-85
2023/08/10 22:52:52;;;;;;;13.15;6.78;;;;;;;;;;5010334;28;20050;-85
2023/08/10 22:55:25;;;;;;;14.70;6.60;;;;;;;;;;5010263;28;20060;-85
2023/08/10 22:57:58;;;;;;;12.77;6.68;;;;;;;;;;4994582;28;20381;-84
2023/08/10 23:00:30;;;;;;;14.90;7.95;;;;;;;;;;5008399;28;20132;-85
2023/08/10 23:03:02;;;;;;;12.95;7.43;;;;;;;;;;5008037;28;20420;-85
2023/08/10 23:05:36;;;;;;;14.90;7.38;;;;;;;;;;5009933;28;20392;-84
2023/08/10 23:08:12;;;;;;;14.13;6.80;;;;;;;;;;4994134;28;20487;-88
2023/08/10 23:10:50;;;;;;;13.82;7.32;;;;;;;;;;5009773;28;20050;-86
2023/08/10 23:13:20;;;;;;;16.02;7.78;;;;;;;;;;5008404;28;20060;-83
2023/08/10 23:15:55;;;;;;;11.55;6.78;;;;;;;;;;5009698;28;20046;-84
2023/08/10 23:18:28;;;;;;;13.73;7.25;;;;;;;;;;5009575;28;20053;-86
2023/08/10 23:21:00;;;;;;;15.38;7.22;;;;;;;;;;5008667;28;20038;-85
2023/08/10 23:23:34;;;;;;;16.50;7.72;;;;;;;;;;5009026;28;20400;-86
2023/08/10 23:26:11;;;;;;;14.30;7.65;;;;;;;;;;4986100;28;20054;-84
2023/08/10 23:28:44;;;;;;;17.30;8.15;;;;;;;;;;5011213;28;20033;-84
2023/08/10 23:31:17;;;;;;;18.10;7.30;;;;;;;;;;5031228;28;20050;-83
2023/08/10 23:33:53;;;;;;;14.73;6.70;;;;;;;;;;5048121;28;20042;-83
2023/08/10 23:36:27;;;;;;;20.70;9.38;;;;;;;;;;5041834;28;20527;-88
2023/08/10 23:39:00;;;;;;;18.13;10.13;;;;;;;;;;5008840;28;20415;-85
2023/08/10 23:41:33;;;;;;;18.13;9.55;;;;;;;;;;5009417;28;20069;-86
2023/08/10 23:44:05;;;;;;;16.63;8.95;;;;;;;;;;5009344;28;20049;-85
2023/08/10 23:46:41;;;;;;;18.02;8.35;;;;;;;;;;5009514;28;20049;-85
2023/08/10 23:49:15;;;;;;;16.38;7.82;;;;;;;;;;5010910;28;20045;-85
2023/08/10 23:51:48;;;;;;;14.40;8.35;;;;;;;;;;5010189;28;20061;-85
2023/08/10 23:54:22;;;;;;;15.13;7.75;;;;;;;;;;5010764;28;20061;-85
2023/08/10 23:57:02;;;;;;;13.18;6.57;;;;;;;;;;5010962;28;20054;-85
2023/08/10 23:59:39;;;;;;;12.30;6.55;;;;;;;;;;5010824;28;20095;-86
